Edinburg, New York
Current Conditions -  °F | °C
As of 1:15 PM on Monday 22 Dec 2014 (Local Time) from KNY0 Reporting Station
Overcast Overcast  
Wind Chill: -4°   Ceiling: 1100
Heat Index:   Visibility: 10mi
Dew Point: -2°   Wind: 7mph
Humidity: 85%   Direction: 100°E
Pressure: 30.25"   Gusts: NA
Location:  43.2819°N, 74.3419°W
Report Text: KNY0 221815Z AUTO 10006KT 10SM OVC011 00/M02 A3025 RMK AO2 T10011024
Loading
Personal Weather Stations






























Interactive Weather Map New forecast layout! Learn more

10-Day Weather Forecast

Advertisements
Track Severe Weather on mobile